sensor_id;sensor_type;location;lat;lon;timestamp;temperature;humidity
21590;DHT22;10957;50.968;6.828;2023-02-13T00:02:40;8.40;99.90
21590;DHT22;10957;50.968;6.828;2023-02-13T00:07:41;8.50;99.90
21590;DHT22;10957;50.968;6.828;2023-02-13T00:12:42;8.60;99.90
21590;DHT22;10957;50.968;6.828;2023-02-13T00:17:43;8.60;99.90
21590;DHT22;10957;50.968;6.828;2023-02-13T00:22:45;8.50;99.90
21590;DHT22;10957;50.968;6.828;2023-02-13T00:27:46;8.50;99.90
21590;DHT22;10957;50.968;6.828;2023-02-13T00:32:47;8.10;99.90
21590;DHT22;10957;50.968;6.828;2023-02-13T00:37:48;8.60;99.90
21590;DHT22;10957;50.968;6.828;2023-02-13T00:42:49;8.50;99.90
21590;DHT22;10957;50.968;6.828;2023-02-13T00:47:51;8.40;99.90
21590;DHT22;10957;50.968;6.828;2023-02-13T00:52:55;8.40;99.90
21590;DHT22;10957;50.968;6.828;2023-02-13T00:57:56;8.50;99.90
21590;DHT22;10957;50.968;6.828;2023-02-13T01:02:57;8.70;99.90
21590;DHT22;10957;50.968;6.828;2023-02-13T01:07:58;8.50;99.90
21590;DHT22;10957;50.968;6.828;2023-02-13T01:12:59;8.40;99.90
21590;DHT22;10957;50.968;6.828;2023-02-13T01:18:01;8.60;99.90
21590;DHT22;10957;50.968;6.828;2023-02-13T01:23:02;8.50;99.90
21590;DHT22;10957;50.968;6.828;2023-02-13T01:28:04;8.70;99.90
21590;DHT22;10957;50.968;6.828;2023-02-13T01:33:05;8.40;99.90
21590;DHT22;10957;50.968;6.828;2023-02-13T01:38:07;8.50;99.90
21590;DHT22;10957;50.968;6.828;2023-02-13T01:43:10;8.30;99.90
21590;DHT22;10957;50.968;6.828;2023-02-13T01:48:16;8.30;99.90
21590;DHT22;10957;50.968;6.828;2023-02-13T01:53:28;8.50;99.90
21590;DHT22;10957;50.968;6.828;2023-02-13T01:58:34;8.30;99.90
21590;DHT22;10957;50.968;6.828;2023-02-13T02:03:42;8.20;99.90
21590;DHT22;10957;50.968;6.828;2023-02-13T02:08:46;8.30;99.90
21590;DHT22;10957;50.968;6.828;2023-02-13T02:13:53;7.90;99.90
21590;DHT22;10957;50.968;6.828;2023-02-13T02:19:12;8.40;99.90
21590;DHT22;10957;50.968;6.828;2023-02-13T02:24:43;8.20;99.90
21590;DHT22;10957;50.968;6.828;2023-02-13T02:30:04;8.50;99.90
21590;DHT22;10957;50.968;6.828;2023-02-13T02:35:25;8.40;99.90
21590;DHT22;10957;50.968;6.828;2023-02-13T02:46:06;8.40;99.90
21590;DHT22;10957;50.968;6.828;2023-02-13T02:51:24;8.30;99.90
21590;DHT22;10957;50.968;6.828;2023-02-13T02:56:36;8.10;99.90
21590;DHT22;10957;50.968;6.828;2023-02-13T03:01:40;8.20;99.90
21590;DHT22;10957;50.968;6.828;2023-02-13T03:07:05;8.10;99.90
21590;DHT22;10957;50.968;6.828;2023-02-13T03:12:08;7.90;99.90
21590;DHT22;10957;50.968;6.828;2023-02-13T03:17:31;8.40;99.90
21590;DHT22;10957;50.968;6.828;2023-02-13T03:33:59;8.20;99.90
21590;DHT22;10957;50.968;6.828;2023-02-13T03:39:52;7.90;99.90
21590;DHT22;10957;50.968;6.828;2023-02-13T03:44:35;8.00;99.90
21590;DHT22;10957;50.968;6.828;2023-02-13T03:49:42;8.00;99.90
21590;DHT22;10957;50.968;6.828;2023-02-13T03:55:13;7.90;99.90
21590;DHT22;10957;50.968;6.828;2023-02-13T04:00:39;7.60;99.90
21590;DHT22;10957;50.968;6.828;2023-02-13T04:05:46;8.00;99.90
21590;DHT22;10957;50.968;6.828;2023-02-13T04:11:06;7.80;99.90
21590;DHT22;10957;50.968;6.828;2023-02-13T04:16:09;8.00;99.90
21590;DHT22;10957;50.968;6.828;2023-02-13T04:21:11;7.90;99.90
21590;DHT22;10957;50.968;6.828;2023-02-13T04:26:17;7.70;99.90
21590;DHT22;10957;50.968;6.828;2023-02-13T04:31:19;7.80;99.90
21590;DHT22;10957;50.968;6.828;2023-02-13T04:36:20;7.90;99.90
21590;DHT22;10957;50.968;6.828;2023-02-13T04:41:21;7.80;99.90
21590;DHT22;10957;50.968;6.828;2023-02-13T04:46:23;7.80;99.90
21590;DHT22;10957;50.968;6.828;2023-02-13T04:51:24;7.50;99.90
21590;DHT22;10957;50.968;6.828;2023-02-13T04:56:25;7.20;99.90
21590;DHT22;10957;50.968;6.828;2023-02-13T05:01:26;7.20;99.90
21590;DHT22;10957;50.968;6.828;2023-02-13T05:06:27;7.50;99.90
21590;DHT22;10957;50.968;6.828;2023-02-13T05:11:28;7.10;99.90
21590;DHT22;10957;50.968;6.828;2023-02-13T05:16:30;7.00;99.90
21590;DHT22;10957;50.968;6.828;2023-02-13T05:21:31;6.40;99.90
21590;DHT22;10957;50.968;6.828;2023-02-13T05:26:50;6.80;99.90
21590;DHT22;10957;50.968;6.828;2023-02-13T05:31:54;6.50;99.90
21590;DHT22;10957;50.968;6.828;2023-02-13T05:36:55;6.70;99.90
21590;DHT22;10957;50.968;6.828;2023-02-13T05:41:56;6.70;99.90
21590;DHT22;10957;50.968;6.828;2023-02-13T05:46:58;6.20;99.90
21590;DHT22;10957;50.968;6.828;2023-02-13T05:51:59;6.50;99.90
21590;DHT22;10957;50.968;6.828;2023-02-13T05:57:00;6.50;99.90
21590;DHT22;10957;50.968;6.828;2023-02-13T06:02:01;6.00;99.90
21590;DHT22;10957;50.968;6.828;2023-02-13T06:07:02;6.10;99.90
21590;DHT22;10957;50.968;6.828;2023-02-13T06:12:04;6.00;99.90
21590;DHT22;10957;50.968;6.828;2023-02-13T06:17:06;6.10;99.90
21590;DHT22;10957;50.968;6.828;2023-02-13T06:22:11;6.20;99.90
21590;DHT22;10957;50.968;6.828;2023-02-13T06:27:12;5.90;99.90
21590;DHT22;10957;50.968;6.828;2023-02-13T06:32:13;6.20;99.90
21590;DHT22;10957;50.968;6.828;2023-02-13T06:37:14;5.30;99.90
21590;DHT22;10957;50.968;6.828;2023-02-13T06:42:15;5.80;99.90
21590;DHT22;10957;50.968;6.828;2023-02-13T06:47:18;5.90;99.90
21590;DHT22;10957;50.968;6.828;2023-02-13T06:52:19;6.00;99.90
21590;DHT22;10957;50.968;6.828;2023-02-13T06:57:21;5.90;99.90
21590;DHT22;10957;50.968;6.828;2023-02-13T07:02:22;5.80;99.90
21590;DHT22;10957;50.968;6.828;2023-02-13T07:07:23;6.10;99.90
21590;DHT22;10957;50.968;6.828;2023-02-13T07:12:24;5.90;99.90
21590;DHT22;10957;50.968;6.828;2023-02-13T07:17:26;6.00;99.90
21590;DHT22;10957;50.968;6.828;2023-02-13T07:22:27;5.70;99.90
21590;DHT22;10957;50.968;6.828;2023-02-13T07:27:28;6.10;99.90
21590;DHT22;10957;50.968;6.828;2023-02-13T07:32:30;6.20;99.90
21590;DHT22;10957;50.968;6.828;2023-02-13T07:37:31;6.00;99.90
21590;DHT22;10957;50.968;6.828;2023-02-13T07:42:33;6.00;99.90
21590;DHT22;10957;50.968;6.828;2023-02-13T07:47:37;6.30;99.90
21590;DHT22;10957;50.968;6.828;2023-02-13T07:52:38;6.40;99.90
21590;DHT22;10957;50.968;6.828;2023-02-13T07:57:39;6.40;99.90
21590;DHT22;10957;50.968;6.828;2023-02-13T08:02:41;6.60;99.90
21590;DHT22;10957;50.968;6.828;2023-02-13T08:07:42;6.90;99.90
21590;DHT22;10957;50.968;6.828;2023-02-13T08:12:43;6.50;99.90
21590;DHT22;10957;50.968;6.828;2023-02-13T08:17:45;6.80;99.90
21590;DHT22;10957;50.968;6.828;2023-02-13T08:22:46;6.80;99.90
21590;DHT22;10957;50.968;6.828;2023-02-13T08:27:47;6.50;99.90
21590;DHT22;10957;50.968;6.828;2023-02-13T08:32:48;7.20;99.90
21590;DHT22;10957;50.968;6.828;2023-02-13T08:37:49;7.20;99.90
21590;DHT22;10957;50.968;6.828;2023-02-13T08:42:50;7.30;99.90
21590;DHT22;10957;50.968;6.828;2023-02-13T08:47:55;7.70;99.90
21590;DHT22;10957;50.968;6.828;2023-02-13T08:52:57;7.30;99.90
21590;DHT22;10957;50.968;6.828;2023-02-13T08:58:01;7.60;99.90
21590;DHT22;10957;50.968;6.828;2023-02-13T09:03:03;7.50;99.90
21590;DHT22;10957;50.968;6.828;2023-02-13T09:08:05;7.80;99.90
21590;DHT22;10957;50.968;6.828;2023-02-13T09:13:06;7.90;99.90
21590;DHT22;10957;50.968;6.828;2023-02-13T09:18:08;8.20;99.90
21590;DHT22;10957;50.968;6.828;2023-02-13T09:23:09;7.70;99.90
21590;DHT22;10957;50.968;6.828;2023-02-13T09:28:10;8.30;99.90
21590;DHT22;10957;50.968;6.828;2023-02-13T09:33:11;7.90;99.90
21590;DHT22;10957;50.968;6.828;2023-02-13T09:38:13;8.20;97.20
21590;DHT22;10957;50.968;6.828;2023-02-13T09:43:29;8.50;99.90
21590;DHT22;10957;50.968;6.828;2023-02-13T09:48:35;8.90;99.90
21590;DHT22;10957;50.968;6.828;2023-02-13T09:53:37;9.10;99.90
21590;DHT22;10957;50.968;6.828;2023-02-13T09:59:11;8.90;92.50
21590;DHT22;10957;50.968;6.828;2023-02-13T10:04:33;9.40;89.70
21590;DHT22;10957;50.968;6.828;2023-02-13T10:10:35;9.30;62.80
21590;DHT22;10957;50.968;6.828;2023-02-13T10:15:47;9.20;53.20
21590;DHT22;10957;50.968;6.828;2023-02-13T10:20:54;9.40;39.80
21590;DHT22;10957;50.968;6.828;2023-02-13T10:26:26;9.60;33.60
21590;DHT22;10957;50.968;6.828;2023-02-13T10:31:44;9.70;15.10
21590;DHT22;10957;50.968;6.828;2023-02-13T10:36:47;9.40;23.70
21590;DHT22;10957;50.968;6.828;2023-02-13T10:47:46;10.00;11.20
21590;DHT22;10957;50.968;6.828;2023-02-13T10:59:11;10.50;3.80
21590;DHT22;10957;50.968;6.828;2023-02-13T11:04:17;10.60;1.00
21590;DHT22;10957;50.968;6.828;2023-02-13T11:09:18;10.40;1.00
21590;DHT22;10957;50.968;6.828;2023-02-13T11:14:25;10.50;1.00
21590;DHT22;10957;50.968;6.828;2023-02-13T11:19:39;10.70;1.00
21590;DHT22;10957;50.968;6.828;2023-02-13T11:24:52;11.40;1.00
21590;DHT22;10957;50.968;6.828;2023-02-13T11:29:56;10.80;1.00
21590;DHT22;10957;50.968;6.828;2023-02-13T11:35:24;11.60;1.00
21590;DHT22;10957;50.968;6.828;2023-02-13T11:40:30;11.50;1.00
21590;DHT22;10957;50.968;6.828;2023-02-13T11:45:32;12.00;1.00
21590;DHT22;10957;50.968;6.828;2023-02-13T11:50:34;11.50;1.00
21590;DHT22;10957;50.968;6.828;2023-02-13T11:55:39;11.70;1.00
21590;DHT22;10957;50.968;6.828;2023-02-13T12:00:42;12.00;1.00
21590;DHT22;10957;50.968;6.828;2023-02-13T12:16:46;12.20;1.00
21590;DHT22;10957;50.968;6.828;2023-02-13T12:33:13;13.00;1.00
21590;DHT22;10957;50.968;6.828;2023-02-13T12:38:48;13.30;1.00
21590;DHT22;10957;50.968;6.828;2023-02-13T12:44:10;13.30;1.00
21590;DHT22;10957;50.968;6.828;2023-02-13T12:55:04;13.50;1.00
21590;DHT22;10957;50.968;6.828;2023-02-13T13:06:17;13.50;1.00
21590;DHT22;10957;50.968;6.828;2023-02-13T13:11:28;13.40;1.00
21590;DHT22;10957;50.968;6.828;2023-02-13T13:16:45;13.40;1.00
21590;DHT22;10957;50.968;6.828;2023-02-13T13:27:01;13.80;1.00
21590;DHT22;10957;50.968;6.828;2023-02-13T13:32:06;13.50;1.00
21590;DHT22;10957;50.968;6.828;2023-02-13T13:37:28;13.60;1.00
21590;DHT22;10957;50.968;6.828;2023-02-13T13:42:50;13.90;1.00
21590;DHT22;10957;50.968;6.828;2023-02-13T13:48:30;13.70;1.00
21590;DHT22;10957;50.968;6.828;2023-02-13T13:53:33;13.90;1.00
21590;DHT22;10957;50.968;6.828;2023-02-13T14:03:46;14.00;1.00
21590;DHT22;10957;50.968;6.828;2023-02-13T14:13:49;14.00;1.00
21590;DHT22;10957;50.968;6.828;2023-02-13T14:18:51;13.40;1.00
21590;DHT22;10957;50.968;6.828;2023-02-13T14:23:53;13.90;1.00
21590;DHT22;10957;50.968;6.828;2023-02-13T14:29:20;14.00;1.00
21590;DHT22;10957;50.968;6.828;2023-02-13T14:34:26;13.50;1.00
21590;DHT22;10957;50.968;6.828;2023-02-13T14:39:32;14.00;1.00
21590;DHT22;10957;50.968;6.828;2023-02-13T14:44:51;13.90;1.00
21590;DHT22;10957;50.968;6.828;2023-02-13T14:49:55;14.00;1.00
21590;DHT22;10957;50.968;6.828;2023-02-13T14:55:06;13.40;1.00
21590;DHT22;10957;50.968;6.828;2023-02-13T15:00:26;14.00;1.00
21590;DHT22;10957;50.968;6.828;2023-02-13T15:05:31;13.60;1.00
21590;DHT22;10957;50.968;6.828;2023-02-13T15:10:49;13.80;1.00
21590;DHT22;10957;50.968;6.828;2023-02-13T15:15:56;13.90;1.00
21590;DHT22;10957;50.968;6.828;2023-02-13T15:20:59;13.50;1.00
21590;DHT22;10957;50.968;6.828;2023-02-13T15:26:03;13.40;1.00
21590;DHT22;10957;50.968;6.828;2023-02-13T15:31:30;13.60;1.00
21590;DHT22;10957;50.968;6.828;2023-02-13T15:36:38;13.10;1.00
21590;DHT22;10957;50.968;6.828;2023-02-13T15:41:43;13.30;1.00
21590;DHT22;10957;50.968;6.828;2023-02-13T15:46:49;13.20;1.00
21590;DHT22;10957;50.968;6.828;2023-02-13T15:52:08;13.00;1.00
21590;DHT22;10957;50.968;6.828;2023-02-13T15:57:12;13.10;1.00
21590;DHT22;10957;50.968;6.828;2023-02-13T16:02:19;12.40;1.00
21590;DHT22;10957;50.968;6.828;2023-02-13T16:07:21;12.30;1.00
21590;DHT22;10957;50.968;6.828;2023-02-13T16:12:27;12.20;1.00
21590;DHT22;10957;50.968;6.828;2023-02-13T16:17:31;12.40;1.00
21590;DHT22;10957;50.968;6.828;2023-02-13T16:22:34;12.10;1.00
21590;DHT22;10957;50.968;6.828;2023-02-13T16:27:43;11.90;1.00
21590;DHT22;10957;50.968;6.828;2023-02-13T16:32:45;11.60;1.00
21590;DHT22;10957;50.968;6.828;2023-02-13T16:37:52;11.50;1.00
21590;DHT22;10957;50.968;6.828;2023-02-13T16:48:35;11.10;1.00
21590;DHT22;10957;50.968;6.828;2023-02-13T16:53:37;10.90;1.00
21590;DHT22;10957;50.968;6.828;2023-02-13T16:58:39;10.60;1.00
21590;DHT22;10957;50.968;6.828;2023-02-13T17:03:41;11.00;1.00
21590;DHT22;10957;50.968;6.828;2023-02-13T17:08:42;10.40;1.00
21590;DHT22;10957;50.968;6.828;2023-02-13T17:13:43;10.70;1.00
21590;DHT22;10957;50.968;6.828;2023-02-13T17:18:44;10.50;1.00
21590;DHT22;10957;50.968;6.828;2023-02-13T17:23:45;10.50;1.00
21590;DHT22;10957;50.968;6.828;2023-02-13T17:28:47;10.40;1.00
21590;DHT22;10957;50.968;6.828;2023-02-13T17:33:49;10.20;1.00
21590;DHT22;10957;50.968;6.828;2023-02-13T17:38:50;10.20;1.00
21590;DHT22;10957;50.968;6.828;2023-02-13T17:43:51;9.70;1.00
21590;DHT22;10957;50.968;6.828;2023-02-13T17:48:52;10.10;1.00
21590;DHT22;10957;50.968;6.828;2023-02-13T17:53:54;9.90;1.00
21590;DHT22;10957;50.968;6.828;2023-02-13T17:58:56;9.60;1.00
21590;DHT22;10957;50.968;6.828;2023-02-13T18:03:57;9.60;1.00
21590;DHT22;10957;50.968;6.828;2023-02-13T18:08:58;9.50;1.00
21590;DHT22;10957;50.968;6.828;2023-02-13T18:13:59;9.10;1.00
21590;DHT22;10957;50.968;6.828;2023-02-13T18:19:02;9.10;1.00
21590;DHT22;10957;50.968;6.828;2023-02-13T18:24:04;9.10;1.00
21590;DHT22;10957;50.968;6.828;2023-02-13T18:29:05;8.80;1.00
21590;DHT22;10957;50.968;6.828;2023-02-13T18:34:07;8.80;1.00
21590;DHT22;10957;50.968;6.828;2023-02-13T18:39:08;8.60;1.00
21590;DHT22;10957;50.968;6.828;2023-02-13T18:44:09;8.40;1.00
21590;DHT22;10957;50.968;6.828;2023-02-13T18:49:10;8.40;1.00
21590;DHT22;10957;50.968;6.828;2023-02-13T18:54:12;7.90;1.00
21590;DHT22;10957;50.968;6.828;2023-02-13T18:59:13;7.80;4.20
21590;DHT22;10957;50.968;6.828;2023-02-13T19:04:15;7.50;1.00
21590;DHT22;10957;50.968;6.828;2023-02-13T19:09:16;8.00;17.70
21590;DHT22;10957;50.968;6.828;2023-02-13T19:14:17;8.00;21.50
21590;DHT22;10957;50.968;6.828;2023-02-13T19:19:19;8.10;1.00
21590;DHT22;10957;50.968;6.828;2023-02-13T19:24:20;7.60;1.00
21590;DHT22;10957;50.968;6.828;2023-02-13T19:29:21;7.80;22.80
21590;DHT22;10957;50.968;6.828;2023-02-13T19:34:22;7.80;25.70
21590;DHT22;10957;50.968;6.828;2023-02-13T19:39:23;7.40;13.70
21590;DHT22;10957;50.968;6.828;2023-02-13T19:44:25;7.80;5.80
21590;DHT22;10957;50.968;6.828;2023-02-13T19:49:26;7.70;1.00
21590;DHT22;10957;50.968;6.828;2023-02-13T19:54:27;7.90;1.20
21590;DHT22;10957;50.968;6.828;2023-02-13T19:59:29;7.80;1.00
21590;DHT22;10957;50.968;6.828;2023-02-13T20:04:30;8.00;1.00
21590;DHT22;10957;50.968;6.828;2023-02-13T20:09:32;8.00;1.00
21590;DHT22;10957;50.968;6.828;2023-02-13T20:14:35;7.70;1.00
21590;DHT22;10957;50.968;6.828;2023-02-13T20:19:37;7.30;1.00
21590;DHT22;10957;50.968;6.828;2023-02-13T20:24:38;7.30;8.50
21590;DHT22;10957;50.968;6.828;2023-02-13T20:29:40;7.40;22.70
21590;DHT22;10957;50.968;6.828;2023-02-13T20:34:41;7.30;29.10
21590;DHT22;10957;50.968;6.828;2023-02-13T20:39:43;6.70;31.90
21590;DHT22;10957;50.968;6.828;2023-02-13T20:44:44;6.80;47.00
21590;DHT22;10957;50.968;6.828;2023-02-13T20:49:46;6.70;36.00
21590;DHT22;10957;50.968;6.828;2023-02-13T20:54:48;6.90;43.30
21590;DHT22;10957;50.968;6.828;2023-02-13T20:59:49;6.50;41.40
21590;DHT22;10957;50.968;6.828;2023-02-13T21:04:50;6.60;69.10
21590;DHT22;10957;50.968;6.828;2023-02-13T21:09:52;6.40;89.00
21590;DHT22;10957;50.968;6.828;2023-02-13T21:14:54;6.40;75.40
21590;DHT22;10957;50.968;6.828;2023-02-13T21:19:55;6.00;99.90
21590;DHT22;10957;50.968;6.828;2023-02-13T21:24:56;6.10;99.90
21590;DHT22;10957;50.968;6.828;2023-02-13T21:29:57;6.00;99.90
21590;DHT22;10957;50.968;6.828;2023-02-13T21:34:59;5.40;99.90
21590;DHT22;10957;50.968;6.828;2023-02-13T21:40:00;5.50;99.90
21590;DHT22;10957;50.968;6.828;2023-02-13T21:45:01;5.40;99.90
21590;DHT22;10957;50.968;6.828;2023-02-13T21:50:06;5.20;99.90
21590;DHT22;10957;50.968;6.828;2023-02-13T21:55:07;5.10;99.90
21590;DHT22;10957;50.968;6.828;2023-02-13T22:00:09;4.90;99.90
21590;DHT22;10957;50.968;6.828;2023-02-13T22:05:13;4.90;99.90
21590;DHT22;10957;50.968;6.828;2023-02-13T22:10:14;4.80;99.90
21590;DHT22;10957;50.968;6.828;2023-02-13T22:15:16;5.00;99.90
21590;DHT22;10957;50.968;6.828;2023-02-13T22:20:17;5.00;99.90
21590;DHT22;10957;50.968;6.828;2023-02-13T22:25:20;5.10;99.90
21590;DHT22;10957;50.968;6.828;2023-02-13T22:30:21;5.10;99.90
21590;DHT22;10957;50.968;6.828;2023-02-13T22:35:22;5.00;99.90
21590;DHT22;10957;50.968;6.828;2023-02-13T22:40:23;5.40;99.90
21590;DHT22;10957;50.968;6.828;2023-02-13T22:45:24;5.20;99.90
21590;DHT22;10957;50.968;6.828;2023-02-13T22:50:25;5.50;99.90
21590;DHT22;10957;50.968;6.828;2023-02-13T22:55:27;5.30;99.90
21590;DHT22;10957;50.968;6.828;2023-02-13T23:00:28;4.90;99.90
21590;DHT22;10957;50.968;6.828;2023-02-13T23:05:29;5.20;99.90
21590;DHT22;10957;50.968;6.828;2023-02-13T23:10:30;4.60;99.90
21590;DHT22;10957;50.968;6.828;2023-02-13T23:15:32;4.90;99.90
21590;DHT22;10957;50.968;6.828;2023-02-13T23:20:34;4.30;99.90
21590;DHT22;10957;50.968;6.828;2023-02-13T23:25:37;4.50;99.90
21590;DHT22;10957;50.968;6.828;2023-02-13T23:30:38;4.70;99.90
21590;DHT22;10957;50.968;6.828;2023-02-13T23:35:40;4.60;99.90
21590;DHT22;10957;50.968;6.828;2023-02-13T23:40:41;4.50;99.90
21590;DHT22;10957;50.968;6.828;2023-02-13T23:45:42;4.40;99.90
21590;DHT22;10957;50.968;6.828;2023-02-13T23:50:43;4.70;99.90
21590;DHT22;10957;50.968;6.828;2023-02-13T23:55:44;4.40;99.90
